sensor_id;sensor_type;location;lat;lon;timestamp;P1;durP1;ratioP1;P2;durP2;ratioP2
57247;SDS011;55809;46.618;10.764;2022-07-23T00:00:39;2.92;;;1.60;;
57247;SDS011;55809;46.618;10.764;2022-07-23T00:03:06;2.88;;;1.63;;
57247;SDS011;55809;46.618;10.764;2022-07-23T00:05:33;2.22;;;1.65;;
57247;SDS011;55809;46.618;10.764;2022-07-23T00:08:00;3.50;;;1.88;;
57247;SDS011;55809;46.618;10.764;2022-07-23T00:10:27;2.92;;;1.77;;
57247;SDS011;55809;46.618;10.764;2022-07-23T00:12:54;3.78;;;2.08;;
57247;SDS011;55809;46.618;10.764;2022-07-23T00:15:22;1.92;;;1.33;;
57247;SDS011;55809;46.618;10.764;2022-07-23T00:17:49;4.68;;;2.47;;
57247;SDS011;55809;46.618;10.764;2022-07-23T00:20:16;4.47;;;1.98;;
57247;SDS011;55809;46.618;10.764;2022-07-23T00:22:46;3.72;;;1.67;;
57247;SDS011;55809;46.618;10.764;2022-07-23T00:27:40;3.15;;;2.00;;
57247;SDS011;55809;46.618;10.764;2022-07-23T00:30:08;2.88;;;1.80;;
57247;SDS011;55809;46.618;10.764;2022-07-23T00:32:46;3.80;;;1.67;;
57247;SDS011;55809;46.618;10.764;2022-07-23T00:35:13;3.65;;;1.60;;
57247;SDS011;55809;46.618;10.764;2022-07-23T00:37:40;3.05;;;1.92;;
57247;SDS011;55809;46.618;10.764;2022-07-23T00:40:08;3.75;;;1.77;;
57247;SDS011;55809;46.618;10.764;2022-07-23T00:42:36;3.90;;;2.10;;
57247;SDS011;55809;46.618;10.764;2022-07-23T00:45:04;4.90;;;2.20;;
57247;SDS011;55809;46.618;10.764;2022-07-23T00:47:32;4.00;;;1.90;;
57247;SDS011;55809;46.618;10.764;2022-07-23T00:50:00;2.28;;;1.42;;
57247;SDS011;55809;46.618;10.764;2022-07-23T00:52:27;5.20;;;2.03;;
57247;SDS011;55809;46.618;10.764;2022-07-23T00:54:55;2.60;;;1.30;;
57247;SDS011;55809;46.618;10.764;2022-07-23T00:57:22;3.75;;;1.90;;
57247;SDS011;55809;46.618;10.764;2022-07-23T00:59:49;2.13;;;1.35;;
57247;SDS011;55809;46.618;10.764;2022-07-23T01:02:16;2.70;;;1.52;;
57247;SDS011;55809;46.618;10.764;2022-07-23T01:04:43;2.67;;;1.70;;
57247;SDS011;55809;46.618;10.764;2022-07-23T01:07:12;3.22;;;1.83;;
57247;SDS011;55809;46.618;10.764;2022-07-23T01:09:39;3.58;;;2.08;;
57247;SDS011;55809;46.618;10.764;2022-07-23T01:12:07;3.85;;;1.52;;
57247;SDS011;55809;46.618;10.764;2022-07-23T01:14:34;2.72;;;1.40;;
57247;SDS011;55809;46.618;10.764;2022-07-23T01:17:01;3.85;;;2.08;;
57247;SDS011;55809;46.618;10.764;2022-07-23T01:19:28;4.75;;;1.88;;
57247;SDS011;55809;46.618;10.764;2022-07-23T01:21:56;2.22;;;1.42;;
57247;SDS011;55809;46.618;10.764;2022-07-23T01:24:26;2.50;;;1.38;;
57247;SDS011;55809;46.618;10.764;2022-07-23T01:26:53;3.30;;;1.60;;
57247;SDS011;55809;46.618;10.764;2022-07-23T01:29:21;3.78;;;2.30;;
57247;SDS011;55809;46.618;10.764;2022-07-23T01:31:48;3.85;;;2.03;;
57247;SDS011;55809;46.618;10.764;2022-07-23T01:34:15;3.17;;;1.50;;
57247;SDS011;55809;46.618;10.764;2022-07-23T01:36:42;3.60;;;1.83;;
57247;SDS011;55809;46.618;10.764;2022-07-23T01:39:09;3.42;;;2.10;;
57247;SDS011;55809;46.618;10.764;2022-07-23T01:41:38;3.08;;;1.70;;
57247;SDS011;55809;46.618;10.764;2022-07-23T01:44:05;2.65;;;1.30;;
57247;SDS011;55809;46.618;10.764;2022-07-23T01:46:32;3.35;;;1.52;;
57247;SDS011;55809;46.618;10.764;2022-07-23T01:49:00;3.80;;;1.50;;
57247;SDS011;55809;46.618;10.764;2022-07-23T01:51:27;2.58;;;1.40;;
57247;SDS011;55809;46.618;10.764;2022-07-23T01:53:54;2.05;;;1.40;;
57247;SDS011;55809;46.618;10.764;2022-07-23T01:56:21;2.38;;;1.38;;
57247;SDS011;55809;46.618;10.764;2022-07-23T01:58:49;2.17;;;1.10;;
57247;SDS011;55809;46.618;10.764;2022-07-23T02:01:16;3.25;;;1.85;;
57247;SDS011;55809;46.618;10.764;2022-07-23T02:03:43;4.47;;;1.67;;
57247;SDS011;55809;46.618;10.764;2022-07-23T02:06:10;2.55;;;1.45;;
57247;SDS011;55809;46.618;10.764;2022-07-23T02:08:37;3.63;;;1.48;;
57247;SDS011;55809;46.618;10.764;2022-07-23T02:11:04;2.88;;;1.58;;
57247;SDS011;55809;46.618;10.764;2022-07-23T02:13:31;2.47;;;1.48;;
57247;SDS011;55809;46.618;10.764;2022-07-23T02:15:59;3.42;;;1.27;;
57247;SDS011;55809;46.618;10.764;2022-07-23T02:18:26;2.28;;;1.40;;
57247;SDS011;55809;46.618;10.764;2022-07-23T02:20:53;2.65;;;1.63;;
57247;SDS011;55809;46.618;10.764;2022-07-23T02:23:20;1.92;;;1.15;;
57247;SDS011;55809;46.618;10.764;2022-07-23T02:25:47;3.20;;;1.60;;
57247;SDS011;55809;46.618;10.764;2022-07-23T02:28:14;2.15;;;1.10;;
57247;SDS011;55809;46.618;10.764;2022-07-23T02:30:41;3.13;;;1.80;;
57247;SDS011;55809;46.618;10.764;2022-07-23T02:33:09;4.15;;;1.95;;
57247;SDS011;55809;46.618;10.764;2022-07-23T02:35:36;3.03;;;1.73;;
57247;SDS011;55809;46.618;10.764;2022-07-23T02:38:03;3.97;;;1.60;;
57247;SDS011;55809;46.618;10.764;2022-07-23T02:40:30;3.20;;;1.65;;
57247;SDS011;55809;46.618;10.764;2022-07-23T02:42:57;2.47;;;1.50;;
57247;SDS011;55809;46.618;10.764;2022-07-23T02:45:24;3.88;;;1.85;;
57247;SDS011;55809;46.618;10.764;2022-07-23T02:47:51;2.65;;;1.58;;
57247;SDS011;55809;46.618;10.764;2022-07-23T02:50:20;2.92;;;1.77;;
57247;SDS011;55809;46.618;10.764;2022-07-23T02:52:47;2.85;;;1.65;;
57247;SDS011;55809;46.618;10.764;2022-07-23T02:55:14;2.38;;;1.70;;
57247;SDS011;55809;46.618;10.764;2022-07-23T02:57:41;3.90;;;1.55;;
57247;SDS011;55809;46.618;10.764;2022-07-23T03:00:09;3.25;;;1.73;;
57247;SDS011;55809;46.618;10.764;2022-07-23T03:02:37;5.47;;;2.33;;
57247;SDS011;55809;46.618;10.764;2022-07-23T03:05:04;1.83;;;1.17;;
57247;SDS011;55809;46.618;10.764;2022-07-23T03:07:34;0.63;;;0.52;;
57247;SDS011;55809;46.618;10.764;2022-07-23T03:10:01;0.93;;;0.55;;
57247;SDS011;55809;46.618;10.764;2022-07-23T03:12:28;0.52;;;0.38;;
57247;SDS011;55809;46.618;10.764;2022-07-23T03:14:55;0.60;;;0.35;;
57247;SDS011;55809;46.618;10.764;2022-07-23T03:17:22;1.05;;;0.50;;
57247;SDS011;55809;46.618;10.764;2022-07-23T03:19:49;0.45;;;0.40;;
57247;SDS011;55809;46.618;10.764;2022-07-23T03:22:16;0.32;;;0.15;;
57247;SDS011;55809;46.618;10.764;2022-07-23T03:24:45;0.22;;;0.20;;
57247;SDS011;55809;46.618;10.764;2022-07-23T03:27:21;0.85;;;0.55;;
57247;SDS011;55809;46.618;10.764;2022-07-23T03:29:49;0.77;;;0.63;;
57247;SDS011;55809;46.618;10.764;2022-07-23T03:32:17;1.02;;;0.63;;
57247;SDS011;55809;46.618;10.764;2022-07-23T03:34:43;0.60;;;0.40;;
57247;SDS011;55809;46.618;10.764;2022-07-23T03:37:10;0.20;;;0.10;;
57247;SDS011;55809;46.618;10.764;2022-07-23T03:39:37;0.75;;;0.40;;
57247;SDS011;55809;46.618;10.764;2022-07-23T03:42:06;0.22;;;0.22;;
57247;SDS011;55809;46.618;10.764;2022-07-23T03:44:33;0.15;;;0.15;;
57247;SDS011;55809;46.618;10.764;2022-07-23T03:47:02;0.10;;;0.10;;
57247;SDS011;55809;46.618;10.764;2022-07-23T03:49:29;0.63;;;0.57;;
57247;SDS011;55809;46.618;10.764;2022-07-23T03:51:56;1.13;;;0.43;;
57247;SDS011;55809;46.618;10.764;2022-07-23T03:54:24;0.80;;;0.40;;
57247;SDS011;55809;46.618;10.764;2022-07-23T03:56:51;0.28;;;0.25;;
57247;SDS011;55809;46.618;10.764;2022-07-23T03:59:19;0.15;;;0.13;;
57247;SDS011;55809;46.618;10.764;2022-07-23T04:01:46;0.43;;;0.43;;
57247;SDS011;55809;46.618;10.764;2022-07-23T04:04:13;0.75;;;0.50;;
57247;SDS011;55809;46.618;10.764;2022-07-23T04:06:40;0.17;;;0.17;;
57247;SDS011;55809;46.618;10.764;2022-07-23T04:09:07;0.77;;;0.25;;
57247;SDS011;55809;46.618;10.764;2022-07-23T04:11:34;0.63;;;0.45;;
57247;SDS011;55809;46.618;10.764;2022-07-23T04:14:01;1.85;;;1.02;;
57247;SDS011;55809;46.618;10.764;2022-07-23T04:16:29;0.63;;;0.38;;
57247;SDS011;55809;46.618;10.764;2022-07-23T04:18:57;0.47;;;0.25;;
57247;SDS011;55809;46.618;10.764;2022-07-23T04:21:24;0.30;;;0.30;;
57247;SDS011;55809;46.618;10.764;2022-07-23T04:23:51;1.10;;;0.45;;
57247;SDS011;55809;46.618;10.764;2022-07-23T04:26:18;0.80;;;0.63;;
57247;SDS011;55809;46.618;10.764;2022-07-23T04:28:46;0.60;;;0.38;;
57247;SDS011;55809;46.618;10.764;2022-07-23T04:31:13;0.77;;;0.30;;
57247;SDS011;55809;46.618;10.764;2022-07-23T04:33:41;0.43;;;0.20;;
57247;SDS011;55809;46.618;10.764;2022-07-23T04:36:09;0.28;;;0.10;;
57247;SDS011;55809;46.618;10.764;2022-07-23T04:38:36;0.10;;;0.03;;
57247;SDS011;55809;46.618;10.764;2022-07-23T04:41:03;1.08;;;0.20;;
57247;SDS011;55809;46.618;10.764;2022-07-23T04:43:30;1.65;;;0.20;;
57247;SDS011;55809;46.618;10.764;2022-07-23T04:45:57;1.00;;;0.63;;
57247;SDS011;55809;46.618;10.764;2022-07-23T04:48:24;0.68;;;0.43;;
57247;SDS011;55809;46.618;10.764;2022-07-23T04:50:53;0.20;;;0.20;;
57247;SDS011;55809;46.618;10.764;2022-07-23T04:53:20;0.40;;;0.40;;
57247;SDS011;55809;46.618;10.764;2022-07-23T04:55:46;0.77;;;0.50;;
57247;SDS011;55809;46.618;10.764;2022-07-23T04:58:14;0.57;;;0.40;;
57247;SDS011;55809;46.618;10.764;2022-07-23T05:00:41;0.47;;;0.40;;
57247;SDS011;55809;46.618;10.764;2022-07-23T05:03:10;0.43;;;0.22;;
57247;SDS011;55809;46.618;10.764;2022-07-23T05:05:37;0.10;;;0.10;;
57247;SDS011;55809;46.618;10.764;2022-07-23T05:08:06;0.10;;;0.10;;
57247;SDS011;55809;46.618;10.764;2022-07-23T05:10:33;0.85;;;0.40;;
57247;SDS011;55809;46.618;10.764;2022-07-23T05:13:00;0.20;;;0.08;;
57247;SDS011;55809;46.618;10.764;2022-07-23T05:15:27;0.30;;;0.30;;
57247;SDS011;55809;46.618;10.764;2022-07-23T05:17:55;1.60;;;0.50;;
57247;SDS011;55809;46.618;10.764;2022-07-23T05:20:22;0.65;;;0.47;;
57247;SDS011;55809;46.618;10.764;2022-07-23T05:22:49;0.25;;;0.17;;
57247;SDS011;55809;46.618;10.764;2022-07-23T05:25:18;0.28;;;0.28;;
57247;SDS011;55809;46.618;10.764;2022-07-23T05:27:45;0.45;;;0.28;;
57247;SDS011;55809;46.618;10.764;2022-07-23T05:30:12;0.47;;;0.35;;
57247;SDS011;55809;46.618;10.764;2022-07-23T05:32:39;0.00;;;0.00;;
57247;SDS011;55809;46.618;10.764;2022-07-23T05:35:07;0.15;;;0.08;;
57247;SDS011;55809;46.618;10.764;2022-07-23T05:37:34;0.57;;;0.35;;
57247;SDS011;55809;46.618;10.764;2022-07-23T05:40:02;0.60;;;0.40;;
57247;SDS011;55809;46.618;10.764;2022-07-23T05:42:33;0.90;;;0.40;;
57247;SDS011;55809;46.618;10.764;2022-07-23T05:45:00;0.45;;;0.40;;
57247;SDS011;55809;46.618;10.764;2022-07-23T05:47:28;0.30;;;0.28;;
57247;SDS011;55809;46.618;10.764;2022-07-23T05:49:55;0.25;;;0.22;;
57247;SDS011;55809;46.618;10.764;2022-07-23T05:52:22;0.20;;;0.20;;
57247;SDS011;55809;46.618;10.764;2022-07-23T05:54:48;0.77;;;0.30;;
57247;SDS011;55809;46.618;10.764;2022-07-23T05:57:16;0.22;;;0.10;;
57247;SDS011;55809;46.618;10.764;2022-07-23T05:59:44;0.57;;;0.30;;
57247;SDS011;55809;46.618;10.764;2022-07-23T06:02:11;0.20;;;0.20;;
57247;SDS011;55809;46.618;10.764;2022-07-23T06:04:38;0.38;;;0.38;;
57247;SDS011;55809;46.618;10.764;2022-07-23T06:07:05;1.67;;;0.70;;
57247;SDS011;55809;46.618;10.764;2022-07-23T06:09:32;0.13;;;0.13;;
57247;SDS011;55809;46.618;10.764;2022-07-23T06:11:59;0.30;;;0.30;;
57247;SDS011;55809;46.618;10.764;2022-07-23T06:14:26;0.57;;;0.20;;
57247;SDS011;55809;46.618;10.764;2022-07-23T06:16:55;0.43;;;0.43;;
57247;SDS011;55809;46.618;10.764;2022-07-23T06:19:22;1.20;;;0.60;;
57247;SDS011;55809;46.618;10.764;2022-07-23T06:21:49;0.57;;;0.40;;
57247;SDS011;55809;46.618;10.764;2022-07-23T06:24:16;1.60;;;0.35;;
57247;SDS011;55809;46.618;10.764;2022-07-23T06:26:43;0.55;;;0.38;;
57247;SDS011;55809;46.618;10.764;2022-07-23T06:29:10;0.82;;;0.50;;
57247;SDS011;55809;46.618;10.764;2022-07-23T06:31:37;0.77;;;0.55;;
57247;SDS011;55809;46.618;10.764;2022-07-23T06:34:05;1.75;;;1.00;;
57247;SDS011;55809;46.618;10.764;2022-07-23T06:36:32;1.02;;;0.50;;
57247;SDS011;55809;46.618;10.764;2022-07-23T06:38:59;0.73;;;0.30;;
57247;SDS011;55809;46.618;10.764;2022-07-23T06:41:26;0.38;;;0.20;;
57247;SDS011;55809;46.618;10.764;2022-07-23T06:43:54;0.45;;;0.30;;
57247;SDS011;55809;46.618;10.764;2022-07-23T06:46:20;0.40;;;0.32;;
57247;SDS011;55809;46.618;10.764;2022-07-23T06:48:47;0.45;;;0.10;;
57247;SDS011;55809;46.618;10.764;2022-07-23T06:51:16;1.00;;;0.55;;
57247;SDS011;55809;46.618;10.764;2022-07-23T06:53:43;0.65;;;0.40;;
57247;SDS011;55809;46.618;10.764;2022-07-23T06:56:09;2.33;;;1.55;;
57247;SDS011;55809;46.618;10.764;2022-07-23T06:58:36;1.10;;;0.80;;
57247;SDS011;55809;46.618;10.764;2022-07-23T07:01:03;0.10;;;0.10;;
57247;SDS011;55809;46.618;10.764;2022-07-23T07:03:31;0.85;;;0.35;;
57247;SDS011;55809;46.618;10.764;2022-07-23T07:05:58;0.55;;;0.43;;
57247;SDS011;55809;46.618;10.764;2022-07-23T07:08:26;0.45;;;0.45;;
57247;SDS011;55809;46.618;10.764;2022-07-23T07:10:55;0.55;;;0.30;;
57247;SDS011;55809;46.618;10.764;2022-07-23T07:13:22;0.38;;;0.28;;
57247;SDS011;55809;46.618;10.764;2022-07-23T07:15:49;0.75;;;0.20;;
57247;SDS011;55809;46.618;10.764;2022-07-23T07:18:16;0.50;;;0.50;;
57247;SDS011;55809;46.618;10.764;2022-07-23T07:20:43;0.75;;;0.30;;
57247;SDS011;55809;46.618;10.764;2022-07-23T07:23:09;1.05;;;0.60;;
57247;SDS011;55809;46.618;10.764;2022-07-23T07:25:40;0.80;;;0.25;;
57247;SDS011;55809;46.618;10.764;2022-07-23T07:28:07;1.27;;;0.40;;
57247;SDS011;55809;46.618;10.764;2022-07-23T07:30:34;0.77;;;0.45;;
57247;SDS011;55809;46.618;10.764;2022-07-23T07:33:01;1.42;;;0.65;;
57247;SDS011;55809;46.618;10.764;2022-07-23T07:35:29;1.20;;;0.60;;
57247;SDS011;55809;46.618;10.764;2022-07-23T07:37:57;0.93;;;0.63;;
57247;SDS011;55809;46.618;10.764;2022-07-23T07:40:25;1.40;;;0.65;;
57247;SDS011;55809;46.618;10.764;2022-07-23T07:42:54;0.73;;;0.40;;
57247;SDS011;55809;46.618;10.764;2022-07-23T07:45:22;0.45;;;0.43;;
57247;SDS011;55809;46.618;10.764;2022-07-23T07:47:50;1.38;;;0.65;;
57247;SDS011;55809;46.618;10.764;2022-07-23T07:50:20;1.02;;;0.50;;
57247;SDS011;55809;46.618;10.764;2022-07-23T07:52:48;1.30;;;0.43;;
57247;SDS011;55809;46.618;10.764;2022-07-23T07:55:15;1.85;;;0.85;;
57247;SDS011;55809;46.618;10.764;2022-07-23T07:57:42;0.82;;;0.60;;
57247;SDS011;55809;46.618;10.764;2022-07-23T08:00:12;1.38;;;1.08;;
57247;SDS011;55809;46.618;10.764;2022-07-23T08:02:42;0.47;;;0.28;;
57247;SDS011;55809;46.618;10.764;2022-07-23T08:05:10;0.77;;;0.65;;
57247;SDS011;55809;46.618;10.764;2022-07-23T08:07:39;1.33;;;0.75;;
57247;SDS011;55809;46.618;10.764;2022-07-23T08:10:07;0.10;;;0.10;;
57247;SDS011;55809;46.618;10.764;2022-07-23T08:12:39;0.30;;;0.30;;
57247;SDS011;55809;46.618;10.764;2022-07-23T08:15:12;0.80;;;0.65;;
57247;SDS011;55809;46.618;10.764;2022-07-23T08:17:42;1.50;;;0.65;;
57247;SDS011;55809;46.618;10.764;2022-07-23T08:20:11;1.05;;;0.60;;
57247;SDS011;55809;46.618;10.764;2022-07-23T08:22:43;0.45;;;0.38;;
57247;SDS011;55809;46.618;10.764;2022-07-23T08:25:11;1.20;;;0.57;;
57247;SDS011;55809;46.618;10.764;2022-07-23T08:27:39;0.98;;;0.40;;
57247;SDS011;55809;46.618;10.764;2022-07-23T08:30:06;0.88;;;0.35;;
57247;SDS011;55809;46.618;10.764;2022-07-23T08:32:48;0.90;;;0.47;;
57247;SDS011;55809;46.618;10.764;2022-07-23T08:35:17;0.35;;;0.28;;
57247;SDS011;55809;46.618;10.764;2022-07-23T08:37:44;1.52;;;0.90;;
57247;SDS011;55809;46.618;10.764;2022-07-23T08:40:11;0.52;;;0.40;;
57247;SDS011;55809;46.618;10.764;2022-07-23T08:42:38;0.85;;;0.50;;
57247;SDS011;55809;46.618;10.764;2022-07-23T08:45:06;0.73;;;0.50;;
57247;SDS011;55809;46.618;10.764;2022-07-23T08:47:36;0.83;;;0.57;;
57247;SDS011;55809;46.618;10.764;2022-07-23T08:50:06;1.52;;;0.60;;
57247;SDS011;55809;46.618;10.764;2022-07-23T08:52:34;0.30;;;0.30;;
57247;SDS011;55809;46.618;10.764;2022-07-23T08:55:02;0.60;;;0.40;;
57247;SDS011;55809;46.618;10.764;2022-07-23T08:57:30;1.80;;;0.95;;
57247;SDS011;55809;46.618;10.764;2022-07-23T08:59:57;0.85;;;0.70;;
57247;SDS011;55809;46.618;10.764;2022-07-23T09:02:24;1.55;;;0.65;;
57247;SDS011;55809;46.618;10.764;2022-07-23T09:04:51;1.95;;;1.00;;
57247;SDS011;55809;46.618;10.764;2022-07-23T09:07:20;1.45;;;0.60;;
57247;SDS011;55809;46.618;10.764;2022-07-23T09:09:47;1.90;;;0.80;;
57247;SDS011;55809;46.618;10.764;2022-07-23T09:12:31;1.38;;;0.70;;
57247;SDS011;55809;46.618;10.764;2022-07-23T09:15:02;1.02;;;0.60;;
57247;SDS011;55809;46.618;10.764;2022-07-23T09:17:36;0.85;;;0.55;;
57247;SDS011;55809;46.618;10.764;2022-07-23T09:20:07;1.20;;;0.60;;
57247;SDS011;55809;46.618;10.764;2022-07-23T09:22:38;0.95;;;0.43;;
57247;SDS011;55809;46.618;10.764;2022-07-23T09:25:08;2.40;;;0.93;;
57247;SDS011;55809;46.618;10.764;2022-07-23T09:27:45;0.40;;;0.30;;
57247;SDS011;55809;46.618;10.764;2022-07-23T09:30:18;2.38;;;0.95;;
57247;SDS011;55809;46.618;10.764;2022-07-23T09:38:16;1.17;;;0.60;;
57247;SDS011;55809;46.618;10.764;2022-07-23T09:40:45;1.17;;;0.60;;
57247;SDS011;55809;46.618;10.764;2022-07-23T09:43:14;2.35;;;1.17;;
57247;SDS011;55809;46.618;10.764;2022-07-23T09:45:52;1.10;;;0.70;;
57247;SDS011;55809;46.618;10.764;2022-07-23T09:48:21;1.50;;;0.70;;
57247;SDS011;55809;46.618;10.764;2022-07-23T09:50:48;1.48;;;0.47;;
57247;SDS011;55809;46.618;10.764;2022-07-23T09:53:24;2.00;;;1.02;;
57247;SDS011;55809;46.618;10.764;2022-07-23T09:55:52;1.65;;;0.68;;
57247;SDS011;55809;46.618;10.764;2022-07-23T09:58:24;1.63;;;0.77;;
57247;SDS011;55809;46.618;10.764;2022-07-23T10:00:53;0.70;;;0.40;;
57247;SDS011;55809;46.618;10.764;2022-07-23T10:03:21;1.85;;;0.75;;
57247;SDS011;55809;46.618;10.764;2022-07-23T10:05:50;1.98;;;0.70;;
57247;SDS011;55809;46.618;10.764;2022-07-23T10:08:19;1.80;;;0.88;;
57247;SDS011;55809;46.618;10.764;2022-07-23T10:10:49;1.58;;;0.70;;
57247;SDS011;55809;46.618;10.764;2022-07-23T10:13:17;1.00;;;0.60;;
57247;SDS011;55809;46.618;10.764;2022-07-23T10:16:00;1.30;;;0.80;;
57247;SDS011;55809;46.618;10.764;2022-07-23T10:18:29;1.48;;;0.90;;
57247;SDS011;55809;46.618;10.764;2022-07-23T10:20:56;2.67;;;1.23;;
57247;SDS011;55809;46.618;10.764;2022-07-23T10:23:27;1.40;;;0.65;;
57247;SDS011;55809;46.618;10.764;2022-07-23T10:26:03;0.98;;;0.73;;
57247;SDS011;55809;46.618;10.764;2022-07-23T10:28:45;1.52;;;0.82;;
57247;SDS011;55809;46.618;10.764;2022-07-23T10:31:26;2.13;;;0.75;;
57247;SDS011;55809;46.618;10.764;2022-07-23T10:34:04;1.38;;;0.60;;
57247;SDS011;55809;46.618;10.764;2022-07-23T10:36:40;2.22;;;1.15;;
57247;SDS011;55809;46.618;10.764;2022-07-23T10:39:13;1.25;;;0.70;;
57247;SDS011;55809;46.618;10.764;2022-07-23T10:41:48;2.08;;;1.05;;
57247;SDS011;55809;46.618;10.764;2022-07-23T10:44:17;1.48;;;0.57;;
57247;SDS011;55809;46.618;10.764;2022-07-23T10:46:55;2.38;;;1.17;;
57247;SDS011;55809;46.618;10.764;2022-07-23T10:49:38;1.65;;;1.05;;
57247;SDS011;55809;46.618;10.764;2022-07-23T10:52:16;1.27;;;0.57;;
57247;SDS011;55809;46.618;10.764;2022-07-23T10:54:45;0.88;;;0.63;;
57247;SDS011;55809;46.618;10.764;2022-07-23T10:57:17;1.90;;;1.00;;
57247;SDS011;55809;46.618;10.764;2022-07-23T11:05:25;1.83;;;0.93;;
57247;SDS011;55809;46.618;10.764;2022-07-23T11:10:55;2.35;;;0.85;;
57247;SDS011;55809;46.618;10.764;2022-07-23T11:13:41;2.03;;;0.80;;
57247;SDS011;55809;46.618;10.764;2022-07-23T11:16:13;1.55;;;0.77;;
57247;SDS011;55809;46.618;10.764;2022-07-23T11:21:47;1.55;;;0.80;;
57247;SDS011;55809;46.618;10.764;2022-07-23T11:24:20;1.38;;;0.70;;
57247;SDS011;55809;46.618;10.764;2022-07-23T11:35:23;0.98;;;0.50;;
57247;SDS011;55809;46.618;10.764;2022-07-23T11:38:03;2.13;;;0.95;;
57247;SDS011;55809;46.618;10.764;2022-07-23T11:40:32;1.67;;;0.80;;
57247;SDS011;55809;46.618;10.764;2022-07-23T11:43:01;1.45;;;0.75;;
57247;SDS011;55809;46.618;10.764;2022-07-23T11:45:36;1.13;;;0.70;;
57247;SDS011;55809;46.618;10.764;2022-07-23T11:48:08;1.73;;;1.00;;
57247;SDS011;55809;46.618;10.764;2022-07-23T11:50:42;1.67;;;0.68;;
57247;SDS011;55809;46.618;10.764;2022-07-23T11:53:13;1.35;;;0.90;;
57247;SDS011;55809;46.618;10.764;2022-07-23T11:55:41;2.80;;;0.93;;
57247;SDS011;55809;46.618;10.764;2022-07-23T11:58:09;1.80;;;0.90;;
57247;SDS011;55809;46.618;10.764;2022-07-23T12:00:40;2.38;;;1.02;;
57247;SDS011;55809;46.618;10.764;2022-07-23T12:03:09;1.80;;;0.63;;
57247;SDS011;55809;46.618;10.764;2022-07-23T12:05:37;1.88;;;0.90;;
57247;SDS011;55809;46.618;10.764;2022-07-23T12:08:06;2.55;;;1.10;;
57247;SDS011;55809;46.618;10.764;2022-07-23T12:10:39;1.35;;;0.82;;
57247;SDS011;55809;46.618;10.764;2022-07-23T12:13:09;1.02;;;0.52;;
57247;SDS011;55809;46.618;10.764;2022-07-23T12:15:41;0.77;;;0.50;;
57247;SDS011;55809;46.618;10.764;2022-07-23T12:18:11;0.55;;;0.47;;
57247;SDS011;55809;46.618;10.764;2022-07-23T12:20:43;2.15;;;0.82;;
57247;SDS011;55809;46.618;10.764;2022-07-23T12:23:13;1.92;;;0.80;;
57247;SDS011;55809;46.618;10.764;2022-07-23T12:25:43;0.98;;;0.60;;
57247;SDS011;55809;46.618;10.764;2022-07-23T12:28:12;1.40;;;0.68;;
57247;SDS011;55809;46.618;10.764;2022-07-23T12:30:45;1.08;;;0.55;;
57247;SDS011;55809;46.618;10.764;2022-07-23T12:33:21;1.73;;;0.82;;
57247;SDS011;55809;46.618;10.764;2022-07-23T12:35:50;1.33;;;0.40;;
57247;SDS011;55809;46.618;10.764;2022-07-23T12:38:20;1.58;;;0.70;;
57247;SDS011;55809;46.618;10.764;2022-07-23T12:40:52;0.70;;;0.47;;
57247;SDS011;55809;46.618;10.764;2022-07-23T12:43:22;0.68;;;0.60;;
57247;SDS011;55809;46.618;10.764;2022-07-23T12:45:53;1.30;;;0.60;;
57247;SDS011;55809;46.618;10.764;2022-07-23T12:48:25;0.43;;;0.43;;
57247;SDS011;55809;46.618;10.764;2022-07-23T12:50:58;0.60;;;0.40;;
57247;SDS011;55809;46.618;10.764;2022-07-23T12:53:28;0.35;;;0.30;;
57247;SDS011;55809;46.618;10.764;2022-07-23T12:55:58;1.60;;;0.82;;
57247;SDS011;55809;46.618;10.764;2022-07-23T13:01:10;0.50;;;0.40;;
57247;SDS011;55809;46.618;10.764;2022-07-23T13:03:54;1.65;;;0.75;;
57247;SDS011;55809;46.618;10.764;2022-07-23T13:06:24;1.02;;;0.80;;
57247;SDS011;55809;46.618;10.764;2022-07-23T13:08:53;0.63;;;0.47;;
57247;SDS011;55809;46.618;10.764;2022-07-23T13:11:21;1.63;;;0.98;;
57247;SDS011;55809;46.618;10.764;2022-07-23T13:13:49;1.65;;;0.75;;
57247;SDS011;55809;46.618;10.764;2022-07-23T13:16:20;1.03;;;0.90;;
57247;SDS011;55809;46.618;10.764;2022-07-23T13:18:48;2.58;;;1.13;;
57247;SDS011;55809;46.618;10.764;2022-07-23T13:21:16;0.80;;;0.65;;
57247;SDS011;55809;46.618;10.764;2022-07-23T13:23:44;3.42;;;1.27;;
57247;SDS011;55809;46.618;10.764;2022-07-23T13:26:11;0.70;;;0.60;;
57247;SDS011;55809;46.618;10.764;2022-07-23T13:28:39;2.05;;;1.02;;
57247;SDS011;55809;46.618;10.764;2022-07-23T13:31:08;1.90;;;0.80;;
57247;SDS011;55809;46.618;10.764;2022-07-23T13:36:37;1.02;;;0.68;;
57247;SDS011;55809;46.618;10.764;2022-07-23T13:39:05;1.00;;;0.82;;
57247;SDS011;55809;46.618;10.764;2022-07-23T13:41:36;0.70;;;0.43;;
57247;SDS011;55809;46.618;10.764;2022-07-23T13:44:05;1.83;;;0.60;;
57247;SDS011;55809;46.618;10.764;2022-07-23T13:46:33;1.80;;;0.80;;
57247;SDS011;55809;46.618;10.764;2022-07-23T13:49:03;2.88;;;1.48;;
57247;SDS011;55809;46.618;10.764;2022-07-23T13:53:59;0.20;;;0.20;;
57247;SDS011;55809;46.618;10.764;2022-07-23T13:56:29;1.60;;;0.77;;
57247;SDS011;55809;46.618;10.764;2022-07-23T13:58:57;0.55;;;0.47;;
57247;SDS011;55809;46.618;10.764;2022-07-23T14:01:24;1.17;;;0.75;;
57247;SDS011;55809;46.618;10.764;2022-07-23T14:03:52;2.45;;;1.23;;
57247;SDS011;55809;46.618;10.764;2022-07-23T14:06:22;3.30;;;1.13;;
57247;SDS011;55809;46.618;10.764;2022-07-23T14:08:50;1.63;;;0.60;;
57247;SDS011;55809;46.618;10.764;2022-07-23T14:11:18;1.38;;;0.75;;
57247;SDS011;55809;46.618;10.764;2022-07-23T14:13:46;2.72;;;1.27;;
57247;SDS011;55809;46.618;10.764;2022-07-23T14:16:13;1.25;;;0.95;;
57247;SDS011;55809;46.618;10.764;2022-07-23T14:18:41;1.73;;;1.05;;
57247;SDS011;55809;46.618;10.764;2022-07-23T14:21:09;1.67;;;0.95;;
57247;SDS011;55809;46.618;10.764;2022-07-23T14:23:39;3.13;;;1.63;;
57247;SDS011;55809;46.618;10.764;2022-07-23T14:26:07;1.38;;;0.85;;
57247;SDS011;55809;46.618;10.764;2022-07-23T14:28:36;2.13;;;1.15;;
57247;SDS011;55809;46.618;10.764;2022-07-23T14:31:04;3.03;;;1.02;;
57247;SDS011;55809;46.618;10.764;2022-07-23T14:33:32;1.50;;;0.65;;
57247;SDS011;55809;46.618;10.764;2022-07-23T14:36:01;1.80;;;1.00;;
57247;SDS011;55809;46.618;10.764;2022-07-23T14:38:31;1.50;;;0.90;;
57247;SDS011;55809;46.618;10.764;2022-07-23T14:41:04;1.33;;;0.80;;
57247;SDS011;55809;46.618;10.764;2022-07-23T14:43:34;1.92;;;0.90;;
57247;SDS011;55809;46.618;10.764;2022-07-23T14:46:07;1.63;;;0.85;;
57247;SDS011;55809;46.618;10.764;2022-07-23T14:48:36;1.65;;;1.17;;
57247;SDS011;55809;46.618;10.764;2022-07-23T14:51:13;1.80;;;0.93;;
57247;SDS011;55809;46.618;10.764;2022-07-23T14:53:41;1.90;;;0.90;;
57247;SDS011;55809;46.618;10.764;2022-07-23T14:56:11;1.55;;;0.95;;
57247;SDS011;55809;46.618;10.764;2022-07-23T14:58:40;2.33;;;0.63;;
57247;SDS011;55809;46.618;10.764;2022-07-23T15:01:08;1.55;;;0.98;;
57247;SDS011;55809;46.618;10.764;2022-07-23T15:03:36;1.55;;;1.10;;
57247;SDS011;55809;46.618;10.764;2022-07-23T15:06:06;1.70;;;0.80;;
57247;SDS011;55809;46.618;10.764;2022-07-23T15:08:38;1.17;;;0.75;;
57247;SDS011;55809;46.618;10.764;2022-07-23T15:11:07;1.67;;;1.00;;
57247;SDS011;55809;46.618;10.764;2022-07-23T15:13:41;2.40;;;1.25;;
57247;SDS011;55809;46.618;10.764;2022-07-23T15:16:12;2.60;;;1.52;;
57247;SDS011;55809;46.618;10.764;2022-07-23T15:18:41;3.13;;;1.02;;